Saturday, January 20, 2018, 8:24 AM EST
Back to Local

KMMK, Meriden Markham Municipal Airport

Location: Meriden, CT, United States Lat: 41.517
Local Time: 8:24 AM EST (13:24 GMT) Lon: -72.833
Time Zone: US/Eastern Elev: 101 ft

Show me the last for .
Show Decoded

2018-01-20 07:53 METAR KMMK 201253Z AUTO 15006KT 10SM CLR M01/M06 A2980 RMK AO2 SLP094 T10061056
                 =
2018-01-20 06:53 METAR KMMK 201153Z AUTO 16006KT 10SM CLR M02/M06 A2981 RMK AO2 SLP096 T10221061
                 11006 21033 55017 =
2018-01-20 05:53 METAR KMMK 201053Z AUTO 15006KT 10SM CLR M01/M06 A2981 RMK AO2 SLP094 T10111061
                 =
2018-01-20 04:53 METAR KMMK 200953Z AUTO 16005KT 10SM CLR M01/M06 A2983 RMK AO2 SLP104 T10111061
                 =
2018-01-20 03:53 METAR KMMK 200853Z AUTO 17004KT 10SM CLR M02/M06 A2986 RMK AO2 SLP112 T10171061
                 55010 =
2018-01-20 01:53 METAR KMMK 200653Z AUTO 17006KT 10SM CLR M03/M06 A2987 RMK AO2 SLP117 T10281056
                 =
2018-01-20 00:53 METAR KMMK 200553Z AUTO 18006KT 9SM CLR M03/M06 A2989 RMK AO2 SLP122 T10331061
                 11033 21067 58022 =
2018-01-19 23:53 METAR KMMK 200453Z AUTO VRB04KT 10SM CLR M06/M08 A2992 RMK AO2 SLP133 T10611083
                 400061117 =
2018-01-19 22:53 METAR KMMK 200353Z AUTO 00000KT 10SM CLR M06/M08 A2994 RMK AO2 SLP139 T10611083
                 =
2018-01-19 21:53 METAR KMMK 200253Z AUTO 00000KT 10SM CLR M07/M09 A2995 RMK AO2 SLP146 T10671089
                 58008 =
2018-01-19 20:53 METAR KMMK 200153Z AUTO VRB03KT 10SM CLR M06/M08 A2998 RMK AO2 SLP154 T10561083
                 =
2018-01-19 19:53 METAR KMMK 200053Z AUTO 00000KT 10SM CLR M06/M08 A2998 RMK AO2 SLP156 T10611083
                 =
2018-01-19 18:53 METAR KMMK 192353Z AUTO 00000KT 10SM CLR M04/M08 A2998 RMK AO2 SLP154 T10441078
                 10006 21050 53006 =
2018-01-19 17:53 METAR KMMK 192253Z AUTO 18003KT 10SM CLR M03/M08 A2997 RMK AO2 SLP150 T10331078
                 =
2018-01-19 16:53 METAR KMMK 192153Z AUTO 20003KT 10SM CLR M01/M08 A2997 RMK AO2 SLP150 T10061083
                 =
2018-01-19 15:53 METAR KMMK 192053Z AUTO 22003KT 10SM CLR 01/M09 A2996 RMK AO2 SLP148 T00061089
                 55003 =
2018-01-19 14:53 METAR KMMK 191953Z AUTO 25008KT 10SM CLR 01/M09 A2996 RMK AO2 SLP147 T00061089 =
2018-01-19 13:53 METAR KMMK 191853Z AUTO 26005KT 10SM CLR 01/M09 A2995 RMK AO2 SLP146 T00061089 =
2018-01-19 12:53 METAR KMMK 191753Z AUTO 28007KT 250V320 10SM CLR M01/M09 A2997 RMK AO2 SLP151
                 I6000 T10061094 11006 21117 58024 =
2018-01-19 11:53 METAR KMMK 191653Z AUTO 27006KT 10SM CLR M02/M10 A3000 RMK AO2 SLP160 T10171100
                 =
2018-01-19 10:53 METAR KMMK 191553Z AUTO 31004KT 10SM CLR M02/M10 A3003 RMK AO2 SLP171 T10171100
                 =
2018-01-19 09:53 METAR KMMK 191453Z AUTO 00000KT 10SM CLR M03/M09 A3004 RMK AO2 SLP176 I3000
                 T10281094 50002 =
2018-01-19 08:53 METAR KMMK 191353Z AUTO 00000KT 8SM CLR M06/M09 A3005 RMK AO2 SLP178 T10611089 =

Support USWX by starting your Amazon purchase here.